sensor_id;sensor_type;location;lat;lon;timestamp;P1;durP1;ratioP1;P2;durP2;ratioP2
68505;SDS011;55509;50.680;17.942;2022-09-09T00:00:14;11.10;;;10.10;;
68505;SDS011;55509;50.680;17.942;2022-09-09T00:03:45;10.00;;;9.10;;
68505;SDS011;55509;50.680;17.942;2022-09-09T00:10:30;7.80;;;7.20;;
68505;SDS011;55509;50.680;17.942;2022-09-09T00:13:40;8.00;;;7.40;;
68505;SDS011;55509;50.680;17.942;2022-09-09T00:16:58;7.70;;;7.10;;
68505;SDS011;55509;50.680;17.942;2022-09-09T00:20:14;7.90;;;7.30;;
68505;SDS011;55509;50.680;17.942;2022-09-09T00:23:29;9.20;;;8.10;;
68505;SDS011;55509;50.680;17.942;2022-09-09T00:30:33;7.00;;;6.40;;
68505;SDS011;55509;50.680;17.942;2022-09-09T00:33:20;7.50;;;6.90;;
68505;SDS011;55509;50.680;17.942;2022-09-09T00:36:26;8.00;;;6.90;;
68505;SDS011;55509;50.680;17.942;2022-09-09T00:39:36;7.90;;;7.30;;
68505;SDS011;55509;50.680;17.942;2022-09-09T00:42:43;8.50;;;6.90;;
68505;SDS011;55509;50.680;17.942;2022-09-09T01:02:56;11.10;;;6.70;;
68505;SDS011;55509;50.680;17.942;2022-09-09T01:06:12;6.50;;;6.10;;
68505;SDS011;55509;50.680;17.942;2022-09-09T01:09:23;6.40;;;5.90;;
68505;SDS011;55509;50.680;17.942;2022-09-09T01:12:41;6.60;;;6.10;;
68505;SDS011;55509;50.680;17.942;2022-09-09T01:15:46;6.00;;;5.30;;
68505;SDS011;55509;50.680;17.942;2022-09-09T01:18:52;7.70;;;7.10;;
68505;SDS011;55509;50.680;17.942;2022-09-09T01:22:22;7.80;;;7.10;;
68505;SDS011;55509;50.680;17.942;2022-09-09T01:29:29;8.00;;;6.50;;
68505;SDS011;55509;50.680;17.942;2022-09-09T01:35:55;6.30;;;5.90;;
68505;SDS011;55509;50.680;17.942;2022-09-09T01:39:02;8.50;;;6.90;;
68505;SDS011;55509;50.680;17.942;2022-09-09T01:42:09;8.00;;;7.20;;
68505;SDS011;55509;50.680;17.942;2022-09-09T01:45:18;9.60;;;8.50;;
68505;SDS011;55509;50.680;17.942;2022-09-09T01:51:34;7.80;;;7.10;;
68505;SDS011;55509;50.680;17.942;2022-09-09T01:54:53;8.00;;;7.40;;
68505;SDS011;55509;50.680;17.942;2022-09-09T02:02:08;7.70;;;7.20;;
68505;SDS011;55509;50.680;17.942;2022-09-09T02:11:55;8.60;;;7.80;;
68505;SDS011;55509;50.680;17.942;2022-09-09T02:15:16;8.60;;;7.90;;
68505;SDS011;55509;50.680;17.942;2022-09-09T02:18:28;8.00;;;7.40;;
68505;SDS011;55509;50.680;17.942;2022-09-09T02:21:36;7.60;;;7.00;;
68505;SDS011;55509;50.680;17.942;2022-09-09T02:24:44;8.40;;;5.80;;
68505;SDS011;55509;50.680;17.942;2022-09-09T02:27:47;9.40;;;8.70;;
68505;SDS011;55509;50.680;17.942;2022-09-09T02:30:52;8.60;;;7.90;;
68505;SDS011;55509;50.680;17.942;2022-09-09T02:33:57;8.30;;;7.70;;
68505;SDS011;55509;50.680;17.942;2022-09-09T02:37:04;8.30;;;7.60;;
68505;SDS011;55509;50.680;17.942;2022-09-09T02:40:10;8.00;;;7.30;;
68505;SDS011;55509;50.680;17.942;2022-09-09T02:43:17;7.70;;;7.00;;
68505;SDS011;55509;50.680;17.942;2022-09-09T02:50:13;6.70;;;6.20;;
68505;SDS011;55509;50.680;17.942;2022-09-09T02:53:28;8.80;;;7.90;;
68505;SDS011;55509;50.680;17.942;2022-09-09T02:56:46;9.00;;;8.10;;
68505;SDS011;55509;50.680;17.942;2022-09-09T02:59:55;7.60;;;7.00;;
68505;SDS011;55509;50.680;17.942;2022-09-09T03:02:59;8.40;;;7.70;;
68505;SDS011;55509;50.680;17.942;2022-09-09T03:06:01;7.70;;;7.20;;
68505;SDS011;55509;50.680;17.942;2022-09-09T03:09:02;7.60;;;7.10;;
68505;SDS011;55509;50.680;17.942;2022-09-09T03:12:04;10.70;;;6.10;;
68505;SDS011;55509;50.680;17.942;2022-09-09T03:15:06;6.90;;;6.30;;
68505;SDS011;55509;50.680;17.942;2022-09-09T03:18:14;7.70;;;7.00;;
68505;SDS011;55509;50.680;17.942;2022-09-09T03:21:18;6.50;;;6.10;;
68505;SDS011;55509;50.680;17.942;2022-09-09T03:24:20;6.80;;;5.80;;
68505;SDS011;55509;50.680;17.942;2022-09-09T03:27:22;8.30;;;7.60;;
68505;SDS011;55509;50.680;17.942;2022-09-09T03:33:27;7.60;;;6.90;;
68505;SDS011;55509;50.680;17.942;2022-09-09T03:36:29;8.90;;;7.40;;
68505;SDS011;55509;50.680;17.942;2022-09-09T03:39:31;7.10;;;6.60;;
68505;SDS011;55509;50.680;17.942;2022-09-09T03:42:33;7.70;;;6.90;;
68505;SDS011;55509;50.680;17.942;2022-09-09T03:45:38;7.40;;;6.80;;
68505;SDS011;55509;50.680;17.942;2022-09-09T03:48:40;8.20;;;7.50;;
68505;SDS011;55509;50.680;17.942;2022-09-09T03:51:41;7.70;;;7.10;;
68505;SDS011;55509;50.680;17.942;2022-09-09T03:54:53;7.50;;;6.80;;
68505;SDS011;55509;50.680;17.942;2022-09-09T04:04:15;7.10;;;6.50;;
68505;SDS011;55509;50.680;17.942;2022-09-09T04:07:20;7.20;;;6.50;;
68505;SDS011;55509;50.680;17.942;2022-09-09T04:10:27;7.90;;;7.20;;
68505;SDS011;55509;50.680;17.942;2022-09-09T04:13:29;10.30;;;7.30;;
68505;SDS011;55509;50.680;17.942;2022-09-09T04:16:32;8.40;;;7.60;;
68505;SDS011;55509;50.680;17.942;2022-09-09T04:19:41;7.50;;;6.60;;
68505;SDS011;55509;50.680;17.942;2022-09-09T04:22:43;7.10;;;6.50;;
68505;SDS011;55509;50.680;17.942;2022-09-09T04:25:45;6.60;;;6.20;;
68505;SDS011;55509;50.680;17.942;2022-09-09T04:28:54;6.70;;;6.10;;
68505;SDS011;55509;50.680;17.942;2022-09-09T04:32:00;8.20;;;6.00;;
68505;SDS011;55509;50.680;17.942;2022-09-09T04:35:02;8.50;;;7.10;;
68505;SDS011;55509;50.680;17.942;2022-09-09T04:38:14;7.00;;;6.40;;
68505;SDS011;55509;50.680;17.942;2022-09-09T04:44:20;7.50;;;6.90;;
68505;SDS011;55509;50.680;17.942;2022-09-09T04:47:21;6.90;;;6.40;;
68505;SDS011;55509;50.680;17.942;2022-09-09T04:50:23;8.40;;;7.50;;
68505;SDS011;55509;50.680;17.942;2022-09-09T04:53:26;7.20;;;6.70;;
68505;SDS011;55509;50.680;17.942;2022-09-09T04:56:31;5.80;;;5.40;;
68505;SDS011;55509;50.680;17.942;2022-09-09T04:59:33;7.10;;;5.30;;
68505;SDS011;55509;50.680;17.942;2022-09-09T05:02:37;6.00;;;5.50;;
68505;SDS011;55509;50.680;17.942;2022-09-09T05:05:40;6.60;;;5.70;;
68505;SDS011;55509;50.680;17.942;2022-09-09T05:08:44;6.20;;;5.60;;
68505;SDS011;55509;50.680;17.942;2022-09-09T05:11:49;6.10;;;5.50;;
68505;SDS011;55509;50.680;17.942;2022-09-09T05:14:54;5.60;;;5.20;;
68505;SDS011;55509;50.680;17.942;2022-09-09T05:18:01;5.40;;;4.80;;
68505;SDS011;55509;50.680;17.942;2022-09-09T05:21:09;10.00;;;5.20;;
68505;SDS011;55509;50.680;17.942;2022-09-09T05:24:17;14.30;;;6.30;;
68505;SDS011;55509;50.680;17.942;2022-09-09T05:27:19;9.30;;;7.70;;
68505;SDS011;55509;50.680;17.942;2022-09-09T05:30:23;7.90;;;7.10;;
68505;SDS011;55509;50.680;17.942;2022-09-09T05:33:27;8.20;;;6.30;;
68505;SDS011;55509;50.680;17.942;2022-09-09T05:36:31;12.10;;;6.50;;
68505;SDS011;55509;50.680;17.942;2022-09-09T05:39:33;5.60;;;5.20;;
68505;SDS011;55509;50.680;17.942;2022-09-09T05:42:38;5.50;;;5.00;;
68505;SDS011;55509;50.680;17.942;2022-09-09T05:45:40;6.60;;;6.00;;
68505;SDS011;55509;50.680;17.942;2022-09-09T05:48:43;6.70;;;5.70;;
68505;SDS011;55509;50.680;17.942;2022-09-09T05:51:51;6.50;;;5.40;;
68505;SDS011;55509;50.680;17.942;2022-09-09T05:54:52;6.10;;;5.60;;
68505;SDS011;55509;50.680;17.942;2022-09-09T05:57:56;6.10;;;5.70;;
68505;SDS011;55509;50.680;17.942;2022-09-09T06:01:01;6.00;;;5.50;;
68505;SDS011;55509;50.680;17.942;2022-09-09T06:04:07;7.30;;;6.00;;
68505;SDS011;55509;50.680;17.942;2022-09-09T06:07:10;6.50;;;6.00;;
68505;SDS011;55509;50.680;17.942;2022-09-09T06:10:11;6.60;;;6.10;;
68505;SDS011;55509;50.680;17.942;2022-09-09T06:13:16;6.50;;;5.30;;
68505;SDS011;55509;50.680;17.942;2022-09-09T06:16:18;8.70;;;5.60;;
68505;SDS011;55509;50.680;17.942;2022-09-09T06:19:21;5.40;;;4.50;;
68505;SDS011;55509;50.680;17.942;2022-09-09T06:22:23;4.30;;;3.90;;
68505;SDS011;55509;50.680;17.942;2022-09-09T06:25:24;4.10;;;3.50;;
68505;SDS011;55509;50.680;17.942;2022-09-09T06:28:26;5.00;;;3.40;;
68505;SDS011;55509;50.680;17.942;2022-09-09T06:31:28;3.30;;;2.70;;
68505;SDS011;55509;50.680;17.942;2022-09-09T06:34:31;4.50;;;4.10;;
68505;SDS011;55509;50.680;17.942;2022-09-09T06:37:33;3.80;;;3.60;;
68505;SDS011;55509;50.680;17.942;2022-09-09T06:40:34;6.30;;;3.40;;
68505;SDS011;55509;50.680;17.942;2022-09-09T06:43:36;6.30;;;3.10;;
68505;SDS011;55509;50.680;17.942;2022-09-09T06:46:38;3.40;;;3.10;;
68505;SDS011;55509;50.680;17.942;2022-09-09T06:49:43;5.30;;;3.50;;
68505;SDS011;55509;50.680;17.942;2022-09-09T06:52:46;3.20;;;3.00;;
68505;SDS011;55509;50.680;17.942;2022-09-09T06:55:48;3.40;;;3.20;;
68505;SDS011;55509;50.680;17.942;2022-09-09T06:58:51;2.90;;;2.70;;
68505;SDS011;55509;50.680;17.942;2022-09-09T07:01:53;2.30;;;2.20;;
68505;SDS011;55509;50.680;17.942;2022-09-09T07:04:56;3.00;;;2.90;;
68505;SDS011;55509;50.680;17.942;2022-09-09T07:07:59;3.30;;;2.80;;
68505;SDS011;55509;50.680;17.942;2022-09-09T07:11:04;3.20;;;3.00;;
68505;SDS011;55509;50.680;17.942;2022-09-09T07:14:08;3.10;;;2.90;;
68505;SDS011;55509;50.680;17.942;2022-09-09T07:17:10;3.10;;;2.90;;
68505;SDS011;55509;50.680;17.942;2022-09-09T07:20:11;2.90;;;2.80;;
68505;SDS011;55509;50.680;17.942;2022-09-09T07:23:13;3.10;;;3.00;;
68505;SDS011;55509;50.680;17.942;2022-09-09T07:26:18;3.10;;;3.00;;
68505;SDS011;55509;50.680;17.942;2022-09-09T07:29:24;6.60;;;3.60;;
68505;SDS011;55509;50.680;17.942;2022-09-09T07:32:25;3.10;;;2.90;;
68505;SDS011;55509;50.680;17.942;2022-09-09T07:35:34;3.50;;;3.20;;
68505;SDS011;55509;50.680;17.942;2022-09-09T07:38:39;4.00;;;3.10;;
68505;SDS011;55509;50.680;17.942;2022-09-09T07:41:47;4.30;;;3.20;;
68505;SDS011;55509;50.680;17.942;2022-09-09T07:44:53;3.90;;;2.80;;
68505;SDS011;55509;50.680;17.942;2022-09-09T07:47:56;3.00;;;2.60;;
68505;SDS011;55509;50.680;17.942;2022-09-09T07:51:05;2.90;;;2.80;;
68505;SDS011;55509;50.680;17.942;2022-09-09T07:54:13;3.60;;;3.40;;
68505;SDS011;55509;50.680;17.942;2022-09-09T07:57:16;2.80;;;2.60;;
68505;SDS011;55509;50.680;17.942;2022-09-09T08:00:18;2.90;;;2.50;;
68505;SDS011;55509;50.680;17.942;2022-09-09T08:03:25;3.20;;;3.00;;
68505;SDS011;55509;50.680;17.942;2022-09-09T08:06:32;3.20;;;2.70;;
68505;SDS011;55509;50.680;17.942;2022-09-09T08:09:40;4.10;;;3.10;;
68505;SDS011;55509;50.680;17.942;2022-09-09T08:12:42;8.60;;;3.30;;
68505;SDS011;55509;50.680;17.942;2022-09-09T08:15:43;3.80;;;2.60;;
68505;SDS011;55509;50.680;17.942;2022-09-09T08:18:51;6.00;;;2.90;;
68505;SDS011;55509;50.680;17.942;2022-09-09T08:21:56;2.30;;;2.20;;
68505;SDS011;55509;50.680;17.942;2022-09-09T08:25:00;3.80;;;2.80;;
68505;SDS011;55509;50.680;17.942;2022-09-09T08:28:03;2.50;;;2.30;;
68505;SDS011;55509;50.680;17.942;2022-09-09T08:31:06;3.20;;;2.10;;
68505;SDS011;55509;50.680;17.942;2022-09-09T08:34:13;3.70;;;1.80;;
68505;SDS011;55509;50.680;17.942;2022-09-09T08:37:16;3.30;;;2.30;;
68505;SDS011;55509;50.680;17.942;2022-09-09T08:40:19;4.50;;;2.80;;
68505;SDS011;55509;50.680;17.942;2022-09-09T08:43:27;2.60;;;2.30;;
68505;SDS011;55509;50.680;17.942;2022-09-09T08:56:09;3.20;;;1.90;;
68505;SDS011;55509;50.680;17.942;2022-09-09T08:59:16;1.80;;;1.70;;
68505;SDS011;55509;50.680;17.942;2022-09-09T09:12:08;2.00;;;1.90;;
68505;SDS011;55509;50.680;17.942;2022-09-09T09:15:26;2.00;;;1.90;;
68505;SDS011;55509;50.680;17.942;2022-09-09T09:18:32;1.80;;;1.70;;
68505;SDS011;55509;50.680;17.942;2022-09-09T09:21:44;2.50;;;2.40;;
68505;SDS011;55509;50.680;17.942;2022-09-09T09:24:53;2.00;;;1.90;;
68505;SDS011;55509;50.680;17.942;2022-09-09T09:27:59;2.50;;;2.40;;
68505;SDS011;55509;50.680;17.942;2022-09-09T09:31:11;3.00;;;2.80;;
68505;SDS011;55509;50.680;17.942;2022-09-09T09:34:15;2.80;;;2.70;;
68505;SDS011;55509;50.680;17.942;2022-09-09T09:37:23;3.00;;;2.80;;
68505;SDS011;55509;50.680;17.942;2022-09-09T09:41:16;3.50;;;3.40;;
68505;SDS011;55509;50.680;17.942;2022-09-09T09:52:24;5.20;;;5.00;;
68505;SDS011;55509;50.680;17.942;2022-09-09T09:55:33;5.00;;;4.80;;
68505;SDS011;55509;50.680;17.942;2022-09-09T09:59:59;5.30;;;5.00;;
68505;SDS011;55509;50.680;17.942;2022-09-09T10:02:41;5.60;;;5.20;;
68505;SDS011;55509;50.680;17.942;2022-09-09T10:05:49;4.80;;;4.70;;
68505;SDS011;55509;50.680;17.942;2022-09-09T10:08:57;3.70;;;3.60;;
68505;SDS011;55509;50.680;17.942;2022-09-09T10:15:42;3.60;;;3.30;;
68505;SDS011;55509;50.680;17.942;2022-09-09T10:19:06;2.30;;;2.20;;
68505;SDS011;55509;50.680;17.942;2022-09-09T10:26:10;2.50;;;2.40;;
68505;SDS011;55509;50.680;17.942;2022-09-09T10:33:16;2.80;;;2.40;;
68505;SDS011;55509;50.680;17.942;2022-09-09T10:36:25;2.40;;;2.30;;
68505;SDS011;55509;50.680;17.942;2022-09-09T10:39:39;2.30;;;2.10;;
68505;SDS011;55509;50.680;17.942;2022-09-09T10:42:42;1.90;;;1.80;;
68505;SDS011;55509;50.680;17.942;2022-09-09T10:52:21;1.90;;;1.80;;
68505;SDS011;55509;50.680;17.942;2022-09-09T10:55:35;2.30;;;1.60;;
68505;SDS011;55509;50.680;17.942;2022-09-09T10:59:04;1.50;;;1.40;;
68505;SDS011;55509;50.680;17.942;2022-09-09T11:02:16;2.10;;;1.70;;
68505;SDS011;55509;50.680;17.942;2022-09-09T11:05:35;4.90;;;4.40;;
68505;SDS011;55509;50.680;17.942;2022-09-09T11:08:42;1.70;;;1.50;;
68505;SDS011;55509;50.680;17.942;2022-09-09T11:11:46;2.00;;;1.70;;
68505;SDS011;55509;50.680;17.942;2022-09-09T11:15:08;2.00;;;1.80;;
68505;SDS011;55509;50.680;17.942;2022-09-09T11:18:36;1.40;;;1.30;;
68505;SDS011;55509;50.680;17.942;2022-09-09T11:21:42;1.90;;;1.20;;
68505;SDS011;55509;50.680;17.942;2022-09-09T11:24:50;2.30;;;1.50;;
68505;SDS011;55509;50.680;17.942;2022-09-09T11:38:44;1.90;;;1.70;;
68505;SDS011;55509;50.680;17.942;2022-09-09T11:41:52;1.60;;;1.60;;
68505;SDS011;55509;50.680;17.942;2022-09-09T11:44:55;2.20;;;2.10;;
68505;SDS011;55509;50.680;17.942;2022-09-09T11:47:58;2.10;;;2.00;;
68505;SDS011;55509;50.680;17.942;2022-09-09T11:54:26;2.40;;;2.30;;
68505;SDS011;55509;50.680;17.942;2022-09-09T11:57:35;2.10;;;2.00;;
68505;SDS011;55509;50.680;17.942;2022-09-09T12:00:46;2.30;;;2.20;;
68505;SDS011;55509;50.680;17.942;2022-09-09T12:03:50;2.90;;;2.80;;
68505;SDS011;55509;50.680;17.942;2022-09-09T12:13:39;2.80;;;2.60;;
68505;SDS011;55509;50.680;17.942;2022-09-09T12:16:44;2.80;;;2.60;;
68505;SDS011;55509;50.680;17.942;2022-09-09T12:19:48;5.50;;;3.20;;
68505;SDS011;55509;50.680;17.942;2022-09-09T12:29:47;2.60;;;2.50;;
68505;SDS011;55509;50.680;17.942;2022-09-09T12:33:13;2.80;;;2.70;;
68505;SDS011;55509;50.680;17.942;2022-09-09T12:36:24;2.80;;;2.70;;
68505;SDS011;55509;50.680;17.942;2022-09-09T12:39:36;2.90;;;2.80;;
68505;SDS011;55509;50.680;17.942;2022-09-09T12:42:46;3.00;;;2.80;;
68505;SDS011;55509;50.680;17.942;2022-09-09T12:45:59;3.40;;;3.10;;
68505;SDS011;55509;50.680;17.942;2022-09-09T12:49:29;3.00;;;2.50;;
68505;SDS011;55509;50.680;17.942;2022-09-09T12:52:35;2.60;;;2.50;;
68505;SDS011;55509;50.680;17.942;2022-09-09T12:55:49;2.80;;;2.70;;
68505;SDS011;55509;50.680;17.942;2022-09-09T12:58:58;3.40;;;3.10;;
68505;SDS011;55509;50.680;17.942;2022-09-09T13:02:00;3.20;;;2.90;;
68505;SDS011;55509;50.680;17.942;2022-09-09T13:05:19;2.30;;;2.10;;
68505;SDS011;55509;50.680;17.942;2022-09-09T13:08:29;4.70;;;3.10;;
68505;SDS011;55509;50.680;17.942;2022-09-09T13:11:35;3.70;;;1.90;;
68505;SDS011;55509;50.680;17.942;2022-09-09T13:14:44;2.30;;;2.10;;
68505;SDS011;55509;50.680;17.942;2022-09-09T13:17:55;2.30;;;2.10;;
68505;SDS011;55509;50.680;17.942;2022-09-09T13:21:08;2.60;;;2.10;;
68505;SDS011;55509;50.680;17.942;2022-09-09T13:27:34;2.80;;;2.10;;
68505;SDS011;55509;50.680;17.942;2022-09-09T13:30:40;2.50;;;1.40;;
68505;SDS011;55509;50.680;17.942;2022-09-09T13:33:44;2.30;;;2.10;;
68505;SDS011;55509;50.680;17.942;2022-09-09T13:36:46;3.00;;;1.70;;
68505;SDS011;55509;50.680;17.942;2022-09-09T13:39:53;1.80;;;1.70;;
68505;SDS011;55509;50.680;17.942;2022-09-09T13:42:56;2.20;;;1.90;;
68505;SDS011;55509;50.680;17.942;2022-09-09T13:46:03;1.90;;;1.80;;
68505;SDS011;55509;50.680;17.942;2022-09-09T13:49:26;2.10;;;1.60;;
68505;SDS011;55509;50.680;17.942;2022-09-09T13:52:34;2.30;;;1.40;;
68505;SDS011;55509;50.680;17.942;2022-09-09T13:55:36;1.60;;;1.50;;
68505;SDS011;55509;50.680;17.942;2022-09-09T13:58:40;1.50;;;1.40;;
68505;SDS011;55509;50.680;17.942;2022-09-09T14:01:42;19.20;;;2.50;;
68505;SDS011;55509;50.680;17.942;2022-09-09T14:04:44;2.40;;;1.40;;
68505;SDS011;55509;50.680;17.942;2022-09-09T14:07:46;2.50;;;1.30;;
68505;SDS011;55509;50.680;17.942;2022-09-09T14:10:47;3.10;;;2.80;;
68505;SDS011;55509;50.680;17.942;2022-09-09T14:13:49;1.90;;;1.10;;
68505;SDS011;55509;50.680;17.942;2022-09-09T14:16:51;1.40;;;1.30;;
68505;SDS011;55509;50.680;17.942;2022-09-09T14:19:55;13.40;;;1.70;;
68505;SDS011;55509;50.680;17.942;2022-09-09T14:22:57;1.40;;;1.20;;
68505;SDS011;55509;50.680;17.942;2022-09-09T14:25:58;6.60;;;5.40;;
68505;SDS011;55509;50.680;17.942;2022-09-09T14:29:00;4.60;;;4.30;;
68505;SDS011;55509;50.680;17.942;2022-09-09T14:32:02;4.10;;;1.40;;
68505;SDS011;55509;50.680;17.942;2022-09-09T14:35:04;5.90;;;1.40;;
68505;SDS011;55509;50.680;17.942;2022-09-09T14:38:06;2.50;;;2.00;;
68505;SDS011;55509;50.680;17.942;2022-09-09T14:41:12;3.10;;;1.80;;
68505;SDS011;55509;50.680;17.942;2022-09-09T14:44:18;3.60;;;1.50;;
68505;SDS011;55509;50.680;17.942;2022-09-09T14:47:22;6.50;;;5.90;;
68505;SDS011;55509;50.680;17.942;2022-09-09T14:50:24;2.80;;;1.70;;
68505;SDS011;55509;50.680;17.942;2022-09-09T14:53:26;3.30;;;1.90;;
68505;SDS011;55509;50.680;17.942;2022-09-09T14:56:28;1.50;;;1.50;;
68505;SDS011;55509;50.680;17.942;2022-09-09T14:59:32;2.20;;;1.90;;
68505;SDS011;55509;50.680;17.942;2022-09-09T15:02:33;1.80;;;1.30;;
68505;SDS011;55509;50.680;17.942;2022-09-09T15:05:38;4.40;;;2.20;;
68505;SDS011;55509;50.680;17.942;2022-09-09T15:08:43;3.90;;;1.60;;
68505;SDS011;55509;50.680;17.942;2022-09-09T15:11:46;2.70;;;1.70;;
68505;SDS011;55509;50.680;17.942;2022-09-09T15:14:48;4.20;;;1.70;;
68505;SDS011;55509;50.680;17.942;2022-09-09T15:17:51;3.60;;;2.10;;
68505;SDS011;55509;50.680;17.942;2022-09-09T15:20:53;3.70;;;1.80;;
68505;SDS011;55509;50.680;17.942;2022-09-09T15:23:58;4.10;;;2.10;;
68505;SDS011;55509;50.680;17.942;2022-09-09T15:27:00;5.70;;;1.60;;
68505;SDS011;55509;50.680;17.942;2022-09-09T15:30:03;1.40;;;1.30;;
68505;SDS011;55509;50.680;17.942;2022-09-09T15:33:07;3.00;;;1.80;;
68505;SDS011;55509;50.680;17.942;2022-09-09T15:36:13;3.60;;;1.50;;
68505;SDS011;55509;50.680;17.942;2022-09-09T15:39:23;4.20;;;1.80;;
68505;SDS011;55509;50.680;17.942;2022-09-09T15:42:25;5.30;;;1.80;;
68505;SDS011;55509;50.680;17.942;2022-09-09T15:45:26;3.80;;;2.50;;
68505;SDS011;55509;50.680;17.942;2022-09-09T15:48:33;2.50;;;1.60;;
68505;SDS011;55509;50.680;17.942;2022-09-09T15:51:40;3.80;;;2.50;;
68505;SDS011;55509;50.680;17.942;2022-09-09T15:54:44;1.60;;;1.50;;
68505;SDS011;55509;50.680;17.942;2022-09-09T15:57:46;4.90;;;1.80;;
68505;SDS011;55509;50.680;17.942;2022-09-09T16:00:48;3.60;;;1.80;;
68505;SDS011;55509;50.680;17.942;2022-09-09T16:03:50;2.60;;;2.00;;
68505;SDS011;55509;50.680;17.942;2022-09-09T16:06:53;2.20;;;1.20;;
68505;SDS011;55509;50.680;17.942;2022-09-09T16:09:56;3.40;;;1.60;;
68505;SDS011;55509;50.680;17.942;2022-09-09T16:12:57;5.50;;;2.00;;
68505;SDS011;55509;50.680;17.942;2022-09-09T16:16:00;5.00;;;1.70;;
68505;SDS011;55509;50.680;17.942;2022-09-09T16:19:06;1.70;;;1.60;;
68505;SDS011;55509;50.680;17.942;2022-09-09T16:22:10;4.50;;;1.70;;
68505;SDS011;55509;50.680;17.942;2022-09-09T16:25:14;6.00;;;1.90;;
68505;SDS011;55509;50.680;17.942;2022-09-09T16:28:19;10.20;;;2.10;;
68505;SDS011;55509;50.680;17.942;2022-09-09T16:31:24;3.10;;;2.00;;
68505;SDS011;55509;50.680;17.942;2022-09-09T16:34:29;4.10;;;2.80;;
68505;SDS011;55509;50.680;17.942;2022-09-09T16:37:34;2.60;;;2.00;;
68505;SDS011;55509;50.680;17.942;2022-09-09T16:40:37;3.20;;;1.60;;
68505;SDS011;55509;50.680;17.942;2022-09-09T16:43:42;5.90;;;4.70;;
68505;SDS011;55509;50.680;17.942;2022-09-09T16:46:46;4.40;;;1.60;;
68505;SDS011;55509;50.680;17.942;2022-09-09T16:49:55;3.60;;;1.80;;
68505;SDS011;55509;50.680;17.942;2022-09-09T16:52:58;4.20;;;1.90;;
68505;SDS011;55509;50.680;17.942;2022-09-09T16:56:06;2.90;;;1.50;;
68505;SDS011;55509;50.680;17.942;2022-09-09T16:59:14;9.10;;;7.20;;
68505;SDS011;55509;50.680;17.942;2022-09-09T17:02:17;2.80;;;2.00;;
68505;SDS011;55509;50.680;17.942;2022-09-09T17:05:19;2.50;;;1.80;;
68505;SDS011;55509;50.680;17.942;2022-09-09T17:08:20;2.90;;;1.60;;
68505;SDS011;55509;50.680;17.942;2022-09-09T17:11:25;3.30;;;1.60;;
68505;SDS011;55509;50.680;17.942;2022-09-09T17:14:29;6.40;;;2.10;;
68505;SDS011;55509;50.680;17.942;2022-09-09T17:17:32;6.40;;;1.60;;
68505;SDS011;55509;50.680;17.942;2022-09-09T17:20:39;5.90;;;1.80;;
68505;SDS011;55509;50.680;17.942;2022-09-09T17:23:45;4.60;;;2.10;;
68505;SDS011;55509;50.680;17.942;2022-09-09T17:26:48;2.80;;;1.40;;
68505;SDS011;55509;50.680;17.942;2022-09-09T17:29:57;2.30;;;2.10;;
68505;SDS011;55509;50.680;17.942;2022-09-09T17:32:59;3.30;;;1.60;;
68505;SDS011;55509;50.680;17.942;2022-09-09T17:36:05;5.70;;;2.20;;
68505;SDS011;55509;50.680;17.942;2022-09-09T17:39:17;4.30;;;2.40;;
68505;SDS011;55509;50.680;17.942;2022-09-09T17:42:19;4.00;;;2.10;;
68505;SDS011;55509;50.680;17.942;2022-09-09T17:45:21;4.80;;;2.50;;
68505;SDS011;55509;50.680;17.942;2022-09-09T17:48:24;3.50;;;2.20;;
68505;SDS011;55509;50.680;17.942;2022-09-09T17:51:26;2.80;;;2.50;;
68505;SDS011;55509;50.680;17.942;2022-09-09T17:54:31;8.30;;;2.50;;
68505;SDS011;55509;50.680;17.942;2022-09-09T17:57:33;7.50;;;6.30;;
68505;SDS011;55509;50.680;17.942;2022-09-09T18:00:44;6.90;;;3.60;;
68505;SDS011;55509;50.680;17.942;2022-09-09T18:03:46;2.90;;;2.40;;
68505;SDS011;55509;50.680;17.942;2022-09-09T18:06:50;2.30;;;2.10;;
68505;SDS011;55509;50.680;17.942;2022-09-09T18:09:56;4.30;;;2.60;;
68505;SDS011;55509;50.680;17.942;2022-09-09T18:12:58;6.40;;;2.80;;
68505;SDS011;55509;50.680;17.942;2022-09-09T18:16:06;2.50;;;2.20;;
68505;SDS011;55509;50.680;17.942;2022-09-09T18:19:10;4.90;;;3.00;;
68505;SDS011;55509;50.680;17.942;2022-09-09T18:22:14;5.40;;;2.90;;
68505;SDS011;55509;50.680;17.942;2022-09-09T18:25:15;7.10;;;2.80;;
68505;SDS011;55509;50.680;17.942;2022-09-09T18:28:20;4.20;;;2.60;;
68505;SDS011;55509;50.680;17.942;2022-09-09T18:31:27;6.20;;;2.60;;
68505;SDS011;55509;50.680;17.942;2022-09-09T18:34:29;6.70;;;3.10;;
68505;SDS011;55509;50.680;17.942;2022-09-09T18:37:34;4.20;;;2.70;;
68505;SDS011;55509;50.680;17.942;2022-09-09T18:40:41;3.40;;;2.80;;
68505;SDS011;55509;50.680;17.942;2022-09-09T18:43:46;4.40;;;2.80;;
68505;SDS011;55509;50.680;17.942;2022-09-09T18:46:51;8.10;;;3.50;;
68505;SDS011;55509;50.680;17.942;2022-09-09T18:49:59;6.20;;;3.20;;
68505;SDS011;55509;50.680;17.942;2022-09-09T18:53:04;5.50;;;2.30;;
68505;SDS011;55509;50.680;17.942;2022-09-09T18:56:07;3.50;;;3.00;;
68505;SDS011;55509;50.680;17.942;2022-09-09T18:59:12;4.90;;;2.80;;
68505;SDS011;55509;50.680;17.942;2022-09-09T19:02:17;5.40;;;2.90;;
68505;SDS011;55509;50.680;17.942;2022-09-09T19:05:19;3.80;;;2.70;;
68505;SDS011;55509;50.680;17.942;2022-09-09T19:08:20;5.70;;;3.40;;
68505;SDS011;55509;50.680;17.942;2022-09-09T19:11:25;5.90;;;3.80;;
68505;SDS011;55509;50.680;17.942;2022-09-09T19:14:28;5.10;;;3.50;;
68505;SDS011;55509;50.680;17.942;2022-09-09T19:17:30;6.90;;;4.80;;
68505;SDS011;55509;50.680;17.942;2022-09-09T19:20:34;7.50;;;5.50;;
68505;SDS011;55509;50.680;17.942;2022-09-09T19:23:39;6.70;;;4.90;;
68505;SDS011;55509;50.680;17.942;2022-09-09T19:26:43;6.00;;;4.20;;
68505;SDS011;55509;50.680;17.942;2022-09-09T19:29:46;6.70;;;4.20;;
68505;SDS011;55509;50.680;17.942;2022-09-09T19:32:48;4.80;;;4.10;;
68505;SDS011;55509;50.680;17.942;2022-09-09T19:35:59;7.00;;;4.60;;
68505;SDS011;55509;50.680;17.942;2022-09-09T19:39:05;6.30;;;4.10;;
68505;SDS011;55509;50.680;17.942;2022-09-09T19:42:12;6.00;;;4.30;;
68505;SDS011;55509;50.680;17.942;2022-09-09T19:45:14;13.60;;;6.00;;
68505;SDS011;55509;50.680;17.942;2022-09-09T19:48:15;9.20;;;6.10;;
68505;SDS011;55509;50.680;17.942;2022-09-09T19:51:18;6.60;;;5.60;;
68505;SDS011;55509;50.680;17.942;2022-09-09T19:54:22;8.30;;;5.30;;
68505;SDS011;55509;50.680;17.942;2022-09-09T19:57:23;11.80;;;5.60;;
68505;SDS011;55509;50.680;17.942;2022-09-09T20:00:28;8.20;;;5.70;;
68505;SDS011;55509;50.680;17.942;2022-09-09T20:06:42;7.30;;;6.40;;
68505;SDS011;55509;50.680;17.942;2022-09-09T20:09:45;7.90;;;7.10;;
68505;SDS011;55509;50.680;17.942;2022-09-09T20:12:49;7.10;;;6.00;;
68505;SDS011;55509;50.680;17.942;2022-09-09T20:15:59;8.00;;;6.40;;
68505;SDS011;55509;50.680;17.942;2022-09-09T20:19:06;6.50;;;5.90;;
68505;SDS011;55509;50.680;17.942;2022-09-09T20:22:11;6.00;;;5.40;;
68505;SDS011;55509;50.680;17.942;2022-09-09T20:25:13;7.00;;;6.30;;
68505;SDS011;55509;50.680;17.942;2022-09-09T20:28:15;7.40;;;4.80;;
68505;SDS011;55509;50.680;17.942;2022-09-09T20:31:22;14.80;;;5.40;;
68505;SDS011;55509;50.680;17.942;2022-09-09T20:34:25;6.60;;;5.90;;
68505;SDS011;55509;50.680;17.942;2022-09-09T20:37:30;6.50;;;5.70;;
68505;SDS011;55509;50.680;17.942;2022-09-09T20:40:35;7.00;;;5.40;;
68505;SDS011;55509;50.680;17.942;2022-09-09T20:43:39;7.80;;;5.50;;